Time;durP1;ratioP1;P1;durP2;ratioP2;P2;SDS_P1;SDS_P2;PMS_P1;PMS_P2;Temp;Humidity;BMP_temperature;BMP_pressure;BME280_temperature;BME280_humidity;BME280_pressure;Samples;Min_cycle;Max_cycle;Signal;HPM_P1;HPM_P2
2021/10/10 00:01:40;;;;;;;;;;;;;;;19.37;66.30;102079.44;5045262;28;2042;-44
2021/10/10 00:04:06;;;;;;;;;;;;;;;19.37;65.25;102057.13;5052476;28;1809;-44
2021/10/10 00:06:33;;;;;;;;;;;;;;;19.41;65.26;102069.38;5048847;28;1906;-45
2021/10/10 00:09:00;;;;;;;;;;;;;;;19.37;65.76;102076.75;5051463;28;1566;-46
2021/10/10 00:11:27;;;;;;;;;;;;;;;19.35;65.67;102070.63;5045948;28;1604;-45
2021/10/10 00:13:53;;;;;;;;;;;;;;;19.33;65.49;102050.25;5052418;28;1726;-45
2021/10/10 00:16:20;;;;;;;;;;;;;;;19.36;65.80;102071.50;5048441;28;2084;-45
2021/10/10 00:18:46;;;;;;;;;;;;;;;19.34;65.89;102066.25;5052539;28;1781;-45
2021/10/10 00:21:13;;;;;;;;;;;;;;;19.33;65.87;102061.84;5035704;28;1600;-45
2021/10/10 00:23:39;;;;;;;;;;;;;;;19.31;66.39;102058.41;5050506;28;1830;-45
2021/10/10 00:26:07;;;;;;;;;;;;;;;19.34;65.67;102058.22;5052191;28;2073;-45
2021/10/10 00:28:34;;;;;;;;;;;;;;;19.29;66.54;102057.66;5052635;28;2328;-44
2021/10/10 00:31:00;;;;;;;;;;;;;;;19.31;66.46;102066.47;5052313;28;1522;-45
2021/10/10 00:33:27;;;;;;;;;;;;;;;19.30;65.88;102051.34;5051979;28;1672;-44
2021/10/10 00:35:54;;;;;;;;;;;;;;;19.32;65.66;102070.00;5052915;28;1824;-44
2021/10/10 00:38:20;;;;;;;;;;;;;;;19.27;66.59;102062.28;5052433;28;1837;-45
2021/10/10 00:40:47;;;;;;;;;;;;;;;19.29;66.45;102068.38;5051214;28;1632;-44
2021/10/10 00:43:15;;;;;;;;;;;;;;;19.27;66.65;102046.19;5052486;28;1669;-45
2021/10/10 00:45:47;;;;;;;;;;;;;;;19.26;65.53;102058.75;5052134;28;1989;-44
2021/10/10 00:48:13;;;;;;;;;;;;;;;19.25;65.94;102058.84;5052113;28;1710;-45
2021/10/10 00:50:40;;;;;;;;;;;;;;;19.27;65.98;102038.97;5045438;28;1714;-45
2021/10/10 00:53:06;;;;;;;;;;;;;;;19.30;66.16;102045.09;5046821;28;1847;-45
2021/10/10 00:55:35;;;;;;;;;;;;;;;19.25;66.24;102048.97;5050319;28;1744;-44
2021/10/10 00:58:02;;;;;;;;;;;;;;;19.28;66.03;102047.91;5051532;28;1530;-45
2021/10/10 01:00:30;;;;;;;;;;;;;;;19.27;66.29;102038.13;5053235;28;1077;-45
2021/10/10 01:02:58;;;;;;;;;;;;;;;19.27;66.02;102040.81;5051791;28;1835;-45
2021/10/10 01:05:27;;;;;;;;;;;;;;;19.24;66.40;102031.16;5051308;28;2253;-45
2021/10/10 01:07:54;;;;;;;;;;;;;;;19.26;66.04;102023.03;5049460;28;1906;-45
2021/10/10 01:10:21;;;;;;;;;;;;;;;19.25;65.88;102026.66;5049032;28;1797;-45
2021/10/10 01:12:47;;;;;;;;;;;;;;;19.27;65.60;102036.31;5051835;28;1895;-44
2021/10/10 01:15:14;;;;;;;;;;;;;;;19.22;66.16;102010.78;5051835;28;1612;-44
2021/10/10 01:17:42;;;;;;;;;;;;;;;19.23;65.75;102025.91;5045880;28;1689;-45
2021/10/10 01:20:10;;;;;;;;;;;;;;;19.23;66.63;102023.22;5051515;28;1572;-44
2021/10/10 01:22:38;;;;;;;;;;;;;;;19.22;65.97;102016.16;5050985;28;2253;-45
2021/10/10 01:25:04;;;;;;;;;;;;;;;19.23;66.57;102007.13;5051005;28;1652;-44
2021/10/10 01:27:31;;;;;;;;;;;;;;;19.23;65.27;102012.50;5051610;28;2278;-44
2021/10/10 01:29:57;;;;;;;;;;;;;;;19.22;65.41;102013.47;5049161;28;1513;-45
2021/10/10 01:32:24;;;;;;;;;;;;;;;19.22;65.46;102019.69;5052086;28;2308;-45
2021/10/10 01:34:50;;;;;;;;;;;;;;;19.17;65.63;102010.25;5054284;28;1529;-45
2021/10/10 01:37:17;;;;;;;;;;;;;;;19.18;65.98;102009.25;5055636;28;2260;-45
2021/10/10 01:39:45;;;;;;;;;;;;;;;19.18;65.46;102011.94;5055421;28;1786;-46
2021/10/10 01:42:12;;;;;;;;;;;;;;;19.17;65.76;102004.88;5051193;28;1646;-45
2021/10/10 01:44:38;;;;;;;;;;;;;;;19.17;65.54;102007.56;5052699;28;1760;-45
2021/10/10 01:47:04;;;;;;;;;;;;;;;19.16;65.85;102016.56;5054812;28;1972;-45
2021/10/10 01:49:31;;;;;;;;;;;;;;;19.15;65.47;102012.16;5054953;28;1596;-44
2021/10/10 01:51:58;;;;;;;;;;;;;;;19.13;66.59;102016.78;5049357;28;1703;-45
2021/10/10 01:54:24;;;;;;;;;;;;;;;19.16;65.56;102017.44;5050380;28;1826;-45
2021/10/10 01:56:52;;;;;;;;;;;;;;;19.19;65.80;102019.03;5055063;28;1801;-45
2021/10/10 01:59:18;;;;;;;;;;;;;;;19.15;65.50;102014.84;5053334;28;1673;-45
2021/10/10 02:01:46;;;;;;;;;;;;;;;19.17;65.37;102015.59;5146228;22;3671;-45
2021/10/10 02:04:16;;;;;;;;;;;;;;;19.17;65.38;102015.59;5031172;28;1828;-45
2021/10/10 02:06:46;;;;;;;;;;;;;;;19.15;66.38;102021.06;5033497;28;1981;-46
2021/10/10 02:09:27;;;;;;;;;;;;;;;19.17;65.34;102013.78;5033440;28;1676;-45
2021/10/10 02:12:08;;;;;;;;;;;;;;;19.12;65.71;102020.41;5032016;28;1869;-45
2021/10/10 02:14:38;;;;;;;;;;;;;;;19.13;66.27;102016.78;5033011;28;1532;-45
2021/10/10 02:17:25;;;;;;;;;;;;;;;19.11;65.39;102008.00;5024633;28;1471;-45
2021/10/10 02:19:56;;;;;;;;;;;;;;;19.12;66.16;102013.25;5030661;28;1912;-44
2021/10/10 02:22:24;;;;;;;;;;;;;;;19.11;65.68;102008.84;5032769;28;1594;-45
2021/10/10 02:24:54;;;;;;;;;;;;;;;19.08;66.60;102015.28;5033392;28;1687;-45
2021/10/10 02:27:22;;;;;;;;;;;;;;;19.07;65.96;101997.47;5033147;28;1977;-45
2021/10/10 02:29:51;;;;;;;;;;;;;;;19.12;65.79;102010.56;5029923;28;1733;-44
2021/10/10 02:32:18;;;;;;;;;;;;;;;19.18;66.00;102006.56;5032742;28;1482;-45
2021/10/10 02:34:44;;;;;;;;;;;;;;;19.58;64.24;102004.66;5034294;28;1207;-44
2021/10/10 02:37:12;;;;;;;;;;;;;;;20.06;64.01;102020.06;5033366;28;1523;-45
2021/10/10 02:39:43;;;;;;;;;;;;;;;20.30;62.60;102013.84;5023897;28;1551;-45
2021/10/10 02:42:09;;;;;;;;;;;;;;;20.00;64.24;102012.44;5033304;28;1556;-45
2021/10/10 02:44:36;;;;;;;;;;;;;;;20.23;63.29;102000.88;5026651;28;1717;-44
2021/10/10 02:47:06;;;;;;;;;;;;;;;20.48;62.74;102007.09;5021190;28;1902;-45
2021/10/10 02:49:36;;;;;;;;;;;;;;;20.49;62.63;101997.19;5033149;28;1067;-44
2021/10/10 02:52:04;;;;;;;;;;;;;;;20.54;63.02;102001.25;5032764;28;2115;-45
2021/10/10 02:54:30;;;;;;;;;;;;;;;20.56;62.10;102006.53;5032883;28;1758;-44
2021/10/10 02:56:59;;;;;;;;;;;;;;;20.65;62.08;101995.09;5016052;28;1780;-44
2021/10/10 02:59:25;;;;;;;;;;;;;;;20.68;61.88;101988.66;5032433;28;1605;-45
2021/10/10 03:01:55;;;;;;;;;;;;;;;20.64;63.10;101996.94;5021768;28;1775;-44
2021/10/10 03:04:36;;;;;;;;;;;;;;;20.77;62.83;102001.38;5019488;28;1399;-44
2021/10/10 03:07:15;;;;;;;;;;;;;;;20.78;62.06;102003.09;5020933;28;1979;-44
2021/10/10 03:09:42;;;;;;;;;;;;;;;20.79;61.90;102021.81;5032284;28;1632;-44
2021/10/10 03:12:11;;;;;;;;;;;;;;;20.91;62.56;102022.69;5031727;28;1837;-45
2021/10/10 03:14:41;;;;;;;;;;;;;;;20.84;61.60;102013.38;5016058;28;1707;-45
2021/10/10 03:17:09;;;;;;;;;;;;;;;20.84;62.62;102018.75;5033101;28;1749;-45
2021/10/10 03:19:39;;;;;;;;;;;;;;;20.85;62.28;102015.94;5033404;28;1111;-44
2021/10/10 03:22:11;;;;;;;;;;;;;;;20.91;61.95;102024.50;5030002;28;1938;-44
2021/10/10 03:24:41;;;;;;;;;;;;;;;20.89;62.57;102023.75;5029794;28;1940;-44
2021/10/10 03:27:08;;;;;;;;;;;;;;;20.77;62.48;102026.44;5029802;28;1987;-44
2021/10/10 03:29:38;;;;;;;;;;;;;;;20.38;63.16;102019.50;5028456;28;1708;-44
2021/10/10 03:32:05;;;;;;;;;;;;;;;20.29;63.40;102033.59;5015608;28;1729;-45
2021/10/10 03:34:33;;;;;;;;;;;;;;;20.13;64.08;102018.63;5029011;28;2738;-45
2021/10/10 03:37:01;;;;;;;;;;;;;;;20.03;65.31;102028.31;5027850;28;2751;-44
2021/10/10 03:39:29;;;;;;;;;;;;;;;20.00;65.62;102009.75;5023087;28;1914;-44
2021/10/10 03:42:00;;;;;;;;;;;;;;;20.42;63.29;102023.69;4970801;28;17699;-45
2021/10/10 03:45:00;;;;;;;;;;;;;;;20.63;63.10;102016.72;5051376;27;11279;-44
2021/10/10 03:47:27;;;;;;;;;;;;;;;20.80;63.40;102017.28;5084380;28;2249;-44
2021/10/10 03:49:53;;;;;;;;;;;;;;;20.65;64.46;102020.16;5089796;28;1111;-43
2021/10/10 03:52:20;;;;;;;;;;;;;;;20.44;63.93;102013.66;5072582;28;11111;-44
2021/10/10 03:55:19;;;;;;;;;;;;;;;20.50;64.62;102020.44;5068578;28;1785;-42
2021/10/10 03:57:46;;;;;;;;;;;;;;;20.34;65.08;102026.09;5062803;28;1801;-43
2021/10/10 04:00:14;;;;;;;;;;;;;;;20.23;64.14;102025.06;5068404;28;1624;-43
2021/10/10 04:02:42;;;;;;;;;;;;;;;20.12;65.20;102026.81;5065650;28;2819;-44
2021/10/10 04:05:18;;;;;;;;;;;;;;;19.98;65.16;102020.59;5069350;28;1087;-43
2021/10/10 04:07:45;;;;;;;;;;;;;;;19.95;65.92;102011.91;5065109;28;1697;-43
2021/10/10 04:10:11;;;;;;;;;;;;;;;19.91;65.45;102008.59;5066802;28;1609;-44
2021/10/10 04:12:37;;;;;;;;;;;;;;;19.89;66.03;102017.72;5063704;28;11033;-42
2021/10/10 04:15:04;;;;;;;;;;;;;;;19.86;67.19;102013.44;5083915;28;1556;-43
2021/10/10 04:17:32;;;;;;;;;;;;;;;19.82;67.28;102014.63;5085835;28;1576;-43
2021/10/10 04:19:59;;;;;;;;;;;;;;;19.76;66.56;102015.94;5088785;28;1463;-43
2021/10/10 04:22:25;;;;;;;;;;;;;;;19.75;66.81;102010.66;5082958;28;1685;-43
2021/10/10 04:24:52;;;;;;;;;;;;;;;19.73;67.38;102021.50;5086669;28;1902;-44
2021/10/10 04:27:18;;;;;;;;;;;;;;;19.70;67.37;102010.13;5085639;28;1524;-44
2021/10/10 04:29:44;;;;;;;;;;;;;;;19.68;67.51;101999.50;5087375;28;1537;-43
2021/10/10 04:32:11;;;;;;;;;;;;;;;19.70;67.22;101999.38;5087079;28;1632;-44
2021/10/10 04:34:39;;;;;;;;;;;;;;;19.65;66.77;101999.69;5087776;28;1613;-44
2021/10/10 04:37:06;;;;;;;;;;;;;;;19.67;67.01;102011.19;5087234;28;1694;-45
2021/10/10 04:39:32;;;;;;;;;;;;;;;19.67;66.73;102003.13;5087353;28;1050;-43
2021/10/10 04:41:59;;;;;;;;;;;;;;;19.65;67.30;102002.38;5087286;28;1795;-44
2021/10/10 04:44:25;;;;;;;;;;;;;;;19.63;67.28;101998.94;5085420;28;1984;-43
2021/10/10 04:46:52;;;;;;;;;;;;;;;19.60;67.43;101994.66;5087082;28;1706;-43
2021/10/10 04:49:18;;;;;;;;;;;;;;;19.58;67.32;102009.16;5087414;28;1737;-43
2021/10/10 04:51:46;;;;;;;;;;;;;;;19.57;66.45;102007.44;5084807;28;1952;-43
2021/10/10 04:54:12;;;;;;;;;;;;;;;19.62;67.29;101999.94;5081348;28;1640;-45
2021/10/10 04:56:40;;;;;;;;;;;;;;;19.33;66.61;102004.66;5073639;28;1688;-44
2021/10/10 04:59:06;;;;;;;;;;;;;;;19.36;67.11;102008.00;5074297;28;1075;-43
2021/10/10 05:01:32;;;;;;;;;;;;;;;19.27;66.01;102020.22;5074181;28;1911;-44
2021/10/10 05:03:59;;;;;;;;;;;;;;;19.39;65.88;102028.38;5073637;28;1981;-44
2021/10/10 05:06:25;;;;;;;;;;;;;;;19.17;66.06;102035.22;5072701;28;1520;-44
2021/10/10 05:08:54;;;;;;;;;;;;;;;19.34;65.61;102034.06;5074396;28;1516;-46
2021/10/10 05:11:20;;;;;;;;;;;;;;;19.39;66.56;102028.38;5071009;28;1935;-43
2021/10/10 05:14:11;;;;;;;;;;;;;;;19.38;65.88;102032.88;5073248;28;1533;-42
2021/10/10 05:16:37;;;;;;;;;;;;;;;19.42;65.93;102039.75;5068877;28;1790;-41
2021/10/10 05:22:07;;;;;;;;;;;;;;;19.34;66.67;102031.38;5071415;28;2712;-43
2021/10/10 05:24:35;;;;;;;;;;;;;;;19.43;66.69;102037.91;5065368;28;1913;-45
2021/10/10 05:27:02;;;;;;;;;;;;;;;19.41;65.95;102026.44;5070343;28;1545;-44
2021/10/10 05:29:29;;;;;;;;;;;;;;;19.38;65.83;102016.78;5072159;28;1763;-44
2021/10/10 05:31:55;;;;;;;;;;;;;;;19.36;65.45;102034.81;5072665;28;1550;-45
2021/10/10 05:34:23;;;;;;;;;;;;;;;19.36;66.38;102036.63;5072464;28;2816;-44
2021/10/10 05:36:50;;;;;;;;;;;;;;;19.27;66.03;102036.31;5072836;28;1067;-44
2021/10/10 05:39:16;;;;;;;;;;;;;;;19.26;66.01;102031.91;5066076;28;2232;-45
2021/10/10 05:41:44;;;;;;;;;;;;;;;19.28;66.58;102042.53;5073372;28;1999;-44
2021/10/10 05:44:11;;;;;;;;;;;;;;;19.27;66.73;102040.81;5072694;28;2233;-45
2021/10/10 05:46:37;;;;;;;;;;;;;;;19.25;66.55;102040.91;5072325;28;1849;-45
2021/10/10 05:49:04;;;;;;;;;;;;;;;19.23;65.26;102029.44;5068250;28;1823;-44
2021/10/10 05:51:30;;;;;;;;;;;;;;;19.24;66.21;102046.41;5073009;28;1559;-44
2021/10/10 05:53:57;;;;;;;;;;;;;;;19.27;66.29;102046.19;5068627;28;1528;-45
2021/10/10 05:56:23;;;;;;;;;;;;;;;19.28;65.94;102051.44;5071425;28;1693;-44
2021/10/10 05:58:56;;;;;;;;;;;;;;;19.30;65.44;102050.47;5072109;28;2037;-44
2021/10/10 06:01:22;;;;;;;;;;;;;;;19.41;65.87;102019.25;5072732;28;1715;-45
2021/10/10 06:03:49;;;;;;;;;;;;;;;19.32;65.60;102040.47;5068164;28;1902;-46
2021/10/10 06:06:15;;;;;;;;;;;;;;;19.24;65.08;102051.78;5069293;28;1575;-45
2021/10/10 06:08:42;;;;;;;;;;;;;;;19.23;65.66;102050.03;5068638;28;2808;-45
2021/10/10 06:11:10;;;;;;;;;;;;;;;19.24;65.98;102046.41;5071467;28;1766;-45
2021/10/10 06:13:36;;;;;;;;;;;;;;;19.32;65.68;102064.63;5066436;28;1970;-46
2021/10/10 06:16:05;;;;;;;;;;;;;;;19.33;66.16;102051.13;5068656;28;1556;-47
2021/10/10 06:18:31;;;;;;;;;;;;;;;19.34;65.68;102058.22;5069301;28;1544;-47
2021/10/10 06:20:58;;;;;;;;;;;;;;;19.34;65.04;102057.31;5068581;28;1604;-47
2021/10/10 06:23:24;;;;;;;;;;;;;;;19.25;64.96;102053.47;5070252;28;1906;-47
2021/10/10 06:25:51;;;;;;;;;;;;;;;19.24;64.98;102067.88;5064652;28;1586;-47
2021/10/10 06:28:17;;;;;;;;;;;;;;;19.20;65.02;102061.84;5068299;28;1683;-46
2021/10/10 06:30:44;;;;;;;;;;;;;;;19.24;65.06;102057.97;5066278;28;1473;-46
2021/10/10 06:33:11;;;;;;;;;;;;;;;19.28;65.87;102064.00;5069908;28;1683;-46
2021/10/10 06:35:42;;;;;;;;;;;;;;;19.37;65.06;102062.50;5064877;28;1499;-46
2021/10/10 06:38:08;;;;;;;;;;;;;;;19.32;62.85;102065.50;5060320;28;1775;-46
2021/10/10 06:40:36;;;;;;;;;;;;;;;19.32;64.84;102073.56;5068765;28;1662;-46
2021/10/10 06:43:02;;;;;;;;;;;;;;;19.31;65.17;102068.28;5071354;28;1794;-47
2021/10/10 06:45:29;;;;;;;;;;;;;;;19.27;65.59;102073.00;5070379;28;1909;-47
2021/10/10 06:47:55;;;;;;;;;;;;;;;19.23;65.56;102066.13;5071767;28;1715;-46
2021/10/10 06:50:23;;;;;;;;;;;;;;;19.27;65.93;102067.63;5072481;28;1079;-46
2021/10/10 06:52:49;;;;;;;;;;;;;;;19.80;64.24;102075.63;5071671;28;2270;-46
2021/10/10 06:55:16;;;;;;;;;;;;;;;20.27;62.48;102053.41;5071460;28;2313;-46
2021/10/10 06:57:43;;;;;;;;;;;;;;;20.75;61.45;102068.72;5071187;28;1772;-46
2021/10/10 07:00:10;;;;;;;;;;;;;;;20.86;61.15;102059.81;5071741;28;1973;-46
2021/10/10 07:02:41;;;;;;;;;;;;;;;20.70;61.91;102059.28;5072396;28;1538;-46
2021/10/10 07:05:08;;;;;;;;;;;;;;;20.61;61.40;102050.94;5071851;28;2032;-46
2021/10/10 07:07:36;;;;;;;;;;;;;;;20.57;61.95;102054.78;5071112;28;1532;-45
2021/10/10 07:10:03;;;;;;;;;;;;;;;20.61;61.86;102053.63;5071657;28;1910;-46
2021/10/10 07:12:29;;;;;;;;;;;;;;;20.62;62.41;102057.16;5071614;28;2361;-46
2021/10/10 07:14:56;;;;;;;;;;;;;;;20.64;62.36;102056.06;5071458;28;1549;-46
2021/10/10 07:17:25;;;;;;;;;;;;;;;20.66;62.35;102043.34;5071226;28;1674;-45
2021/10/10 07:19:55;;;;;;;;;;;;;;;20.60;61.94;102042.97;5072226;28;1094;-46
2021/10/10 07:22:30;;;;;;;;;;;;;;;20.62;62.28;102049.94;5071206;28;1891;-47
2021/10/10 07:25:05;;;;;;;;;;;;;;;20.68;62.29;102040.56;5071010;28;1906;-46
2021/10/10 07:27:33;;;;;;;;;;;;;;;20.70;62.05;102053.91;5059112;28;1942;-46
2021/10/10 07:29:59;;;;;;;;;;;;;;;20.72;62.10;102055.47;5071244;28;2061;-46
2021/10/10 07:32:26;;;;;;;;;;;;;;;20.70;62.24;102048.53;5070969;28;1743;-46
2021/10/10 07:34:52;;;;;;;;;;;;;;;20.80;61.88;102049.53;5071120;28;1513;-47
2021/10/10 07:37:18;;;;;;;;;;;;;;;20.79;61.41;102045.13;5071837;28;1828;-47
2021/10/10 07:39:45;;;;;;;;;;;;;;;20.83;61.46;102054.66;5072104;28;1078;-48
2021/10/10 07:42:13;;;;;;;;;;;;;;;20.85;61.09;102029.41;5070913;28;2108;-46
2021/10/10 07:44:44;;;;;;;;;;;;;;;20.86;61.04;102027.56;5070685;28;1891;-46
2021/10/10 07:47:16;;;;;;;;;;;;;;;20.81;62.08;102040.47;5067049;28;1918;-45
2021/10/10 07:49:43;;;;;;;;;;;;;;;20.85;60.96;102039.31;5071262;28;2305;-46
2021/10/10 07:52:10;;;;;;;;;;;;;;;20.85;61.35;102056.28;5071245;28;1718;-46
2021/10/10 07:54:36;;;;;;;;;;;;;;;20.89;60.85;102056.91;5071016;28;1730;-47
2021/10/10 07:57:05;;;;;;;;;;;;;;;20.90;61.47;102038.94;5063222;28;1685;-46
2021/10/10 07:59:33;;;;;;;;;;;;;;;20.48;59.44;102051.94;5063156;28;1473;-47
2021/10/10 08:02:07;;;;;;;;;;;;;;;20.60;61.31;102038.44;5057722;28;1778;-47
2021/10/10 08:04:37;;;;;;;;;;;;;;;20.05;58.20;102043.38;5061975;28;1977;-47
2021/10/10 08:07:03;;;;;;;;;;;;;;;20.19;63.02;102039.69;5070436;28;1749;-50
2021/10/10 08:09:33;;;;;;;;;;;;;;;20.35;63.54;102043.91;5068131;28;1541;-45
2021/10/10 08:12:21;;;;;;;;;;;;;;;20.45;64.39;102040.44;5069175;28;1609;-43
2021/10/10 08:14:53;;;;;;;;;;;;;;;21.03;61.86;102035.19;5063057;28;2269;-45
2021/10/10 08:17:23;;;;;;;;;;;;;;;21.09;63.18;102027.59;5058958;28;1811;-46
2021/10/10 08:19:50;;;;;;;;;;;;;;;20.98;64.75;102036.53;5071820;28;1523;-46
2021/10/10 08:22:18;;;;;;;;;;;;;;;20.96;65.05;102025.03;5070963;28;1556;-45
2021/10/10 08:24:45;;;;;;;;;;;;;;;20.91;64.92;102040.63;5066694;28;1898;-48
2021/10/10 08:27:13;;;;;;;;;;;;;;;20.59;67.59;102034.06;5070462;28;1569;-42
2021/10/10 08:29:43;;;;;;;;;;;;;;;20.98;60.76;102032.00;5064755;28;2146;-47
2021/10/10 08:32:22;;;;;;;;;;;;;;;21.26;63.90;102022.63;5068922;28;1793;-46
2021/10/10 08:34:52;;;;;;;;;;;;;;;21.09;65.30;102011.47;5074322;28;1683;-47
2021/10/10 08:37:19;;;;;;;;;;;;;;;20.98;65.00;102015.84;5073331;28;2428;-49
2021/10/10 08:39:48;;;;;;;;;;;;;;;21.20;65.65;102008.81;5066816;28;1870;-47
2021/10/10 08:42:27;;;;;;;;;;;;;;;21.22;66.27;102031.06;5073343;28;1851;-42
2021/10/10 08:45:02;;;;;;;;;;;;;;;21.24;68.54;102011.13;5073744;28;1991;-39
2021/10/10 08:47:34;;;;;;;;;;;;;;;21.77;67.67;102005.22;5074138;28;1911;-40
2021/10/10 08:50:04;;;;;;;;;;;;;;;21.82;67.51;102021.81;5062944;28;1563;-44
2021/10/10 08:52:30;;;;;;;;;;;;;;;21.48;67.89;102006.69;5063234;28;2016;-45
2021/10/10 08:54:58;;;;;;;;;;;;;;;21.19;67.91;102002.59;5065398;28;1780;-45
2021/10/10 08:57:28;;;;;;;;;;;;;;;21.29;68.78;102026.94;5067020;28;1677;-47
2021/10/10 09:00:04;;;;;;;;;;;;;;;21.36;68.88;102019.22;5069656;28;1775;-39
2021/10/10 09:02:33;;;;;;;;;;;;;;;21.51;68.58;101996.53;5072920;28;1633;-42
2021/10/10 09:07:50;;;;;;;;;;;;;;;21.48;70.20;102039.81;5063678;28;2373;-48
2021/10/10 09:10:24;;;;;;;;;;;;;;;21.42;70.71;102030.34;5072718;28;1624;-44
2021/10/10 09:12:52;;;;;;;;;;;;;;;21.46;71.71;102017.56;5071049;28;1955;-45
2021/10/10 09:15:20;;;;;;;;;;;;;;;21.50;71.42;102024.41;5072888;28;1691;-47
2021/10/10 09:18:02;;;;;;;;;;;;;;;21.52;71.80;102014.38;5060249;28;1671;-44
2021/10/10 09:20:44;;;;;;;;;;;;;;;21.57;72.59;102016.72;5054141;28;1954;-45
2021/10/10 09:23:29;;;;;;;;;;;;;;;21.62;73.04;102014.50;5060878;28;1896;-48
2021/10/10 09:25:57;;;;;;;;;;;;;;;21.59;72.40;102020.16;5069920;28;2225;-57
2021/10/10 09:28:27;;;;;;;;;;;;;;;21.56;72.00;102034.69;5070531;28;1543;-55
2021/10/10 09:31:04;;;;;;;;;;;;;;;21.50;72.95;102010.09;5068269;28;2120;-56
2021/10/10 09:33:42;;;;;;;;;;;;;;;21.66;72.32;102010.59;5067555;28;2038;-54
2021/10/10 09:36:15;;;;;;;;;;;;;;;21.63;72.33;102005.47;5069728;28;1327;-57
2021/10/10 09:38:46;;;;;;;;;;;;;;;21.62;72.94;102011.81;5069665;28;2746;-57
2021/10/10 09:41:19;;;;;;;;;;;;;;;21.56;72.98;102009.63;5072089;28;1477;-58
2021/10/10 09:44:03;;;;;;;;;;;;;;;21.53;72.51;102020.63;5071381;28;1922;-56
2021/10/10 09:46:31;;;;;;;;;;;;;;;21.47;73.21;102010.31;5071675;28;1909;-55
2021/10/10 09:49:01;;;;;;;;;;;;;;;21.42;73.18;101998.06;5071375;28;1648;-55
2021/10/10 09:51:42;;;;;;;;;;;;;;;21.48;73.55;102012.06;5069769;28;1567;-55
2021/10/10 09:54:10;;;;;;;;;;;;;;;21.21;72.18;102032.06;5067632;28;1744;-57
2021/10/10 09:56:36;;;;;;;;;;;;;;;20.75;69.96;102022.13;5069704;28;1623;-58
2021/10/10 09:59:07;;;;;;;;;;;;;;;20.74;71.50;102023.13;5062203;28;937;-58
2021/10/10 10:01:39;;;;;;;;;;;;;;;20.89;70.23;102030.03;5070777;28;1549;-58
2021/10/10 10:04:11;;;;;;;;;;;;;;;20.84;60.12;102013.38;5072426;28;1700;-56
2021/10/10 10:06:41;;;;;;;;;;;;;;;20.86;67.25;102006.03;5071990;28;1906;-56
2021/10/10 10:09:10;;;;;;;;;;;;;;;20.84;69.45;102024.13;5073271;28;2089;-60
2021/10/10 10:11:46;;;;;;;;;;;;;;;20.80;69.68;102018.13;5054010;28;1685;-60
2021/10/10 10:14:14;;;;;;;;;;;;;;;20.74;69.71;102018.59;5060817;28;1664;-58
2021/10/10 10:16:48;;;;;;;;;;;;;;;20.74;69.22;102010.53;5068586;28;1793;-57
2021/10/10 10:19:17;;;;;;;;;;;;;;;20.76;69.30;102015.78;5058277;28;1752;-55
2021/10/10 10:21:59;;;;;;;;;;;;;;;20.71;69.42;102007.22;5056999;28;1734;-59
2021/10/10 10:24:27;;;;;;;;;;;;;;;20.65;69.18;102020.16;5070403;28;1454;-59
2021/10/10 10:26:58;;;;;;;;;;;;;;;20.52;70.34;102013.94;5056061;28;1902;-58
2021/10/10 10:29:34;;;;;;;;;;;;;;;20.48;69.65;102017.00;5071074;28;1643;-58
2021/10/10 10:32:02;;;;;;;;;;;;;;;20.44;69.96;102005.63;5072090;28;1574;-58
2021/10/10 10:34:33;;;;;;;;;;;;;;;20.48;70.25;102012.47;5070722;28;1086;-57
2021/10/10 10:37:04;;;;;;;;;;;;;;;20.44;69.26;102011.00;5073049;28;1881;-58
2021/10/10 10:39:37;;;;;;;;;;;;;;;20.45;68.83;101986.69;5072623;28;1874;-58
2021/10/10 10:42:05;;;;;;;;;;;;;;;20.40;68.65;101996.06;5061395;28;1807;-57
2021/10/10 10:45:00;;;;;;;;;;;;;;;20.39;69.79;102008.66;5071009;28;1505;-57
2021/10/10 10:47:38;;;;;;;;;;;;;;;20.47;68.76;102005.38;5056948;28;1731;-46
2021/10/10 10:50:16;;;;;;;;;;;;;;;20.51;67.21;102001.47;5061396;28;1672;-52
2021/10/10 10:52:44;;;;;;;;;;;;;;;20.47;68.54;102010.75;5071625;28;1762;-49
2021/10/10 10:55:25;;;;;;;;;;;;;;;20.40;67.60;102004.97;5068911;28;1999;-48
2021/10/10 11:00:38;;;;;;;;;;;;;;;20.43;68.58;101998.50;5066469;28;2503;-48
2021/10/10 11:03:16;;;;;;;;;;;;;;;20.39;68.19;101989.84;5067846;28;1678;-49
2021/10/10 11:05:54;;;;;;;;;;;;;;;20.48;68.20;102000.88;5065603;28;1882;-47
2021/10/10 11:08:35;;;;;;;;;;;;;;;20.45;68.12;101975.94;5068635;28;2178;-47
2021/10/10 11:11:16;;;;;;;;;;;;;;;20.03;66.83;101978.19;5064280;28;1742;-46
2021/10/10 11:14:05;;;;;;;;;;;;;;;20.32;68.41;101977.84;5064288;28;2061;-47
2021/10/10 11:16:32;;;;;;;;;;;;;;;20.33;68.13;101982.22;5060114;28;1951;-47
2021/10/10 11:19:14;;;;;;;;;;;;;;;20.24;67.76;101964.97;5066372;28;1696;-46
2021/10/10 11:21:46;;;;;;;;;;;;;;;20.27;68.20;101962.06;5072765;28;1507;-47
2021/10/10 11:24:18;;;;;;;;;;;;;;;20.30;67.95;101962.81;5071631;28;1606;-47
2021/10/10 11:29:50;;;;;;;;;;;;;;;20.18;68.50;101949.31;5068772;28;2206;-46
2021/10/10 11:32:16;;;;;;;;;;;;;;;20.14;68.89;101937.09;5071706;28;1943;-48
2021/10/10 11:34:46;;;;;;;;;;;;;;;20.22;67.87;101950.81;5072357;28;1725;-46
2021/10/10 11:37:18;;;;;;;;;;;;;;;20.20;69.04;101933.94;5063629;28;1570;-49
2021/10/10 11:39:45;;;;;;;;;;;;;;;20.16;68.77;101932.47;5072568;28;1513;-48
2021/10/10 11:42:21;;;;;;;;;;;;;;;20.15;68.09;101925.34;5060837;28;1687;-47
2021/10/10 11:44:50;;;;;;;;;;;;;;;20.16;69.41;101910.13;5071101;28;1857;-48
2021/10/10 11:47:18;;;;;;;;;;;;;;;20.16;68.47;101924.41;5070377;28;1963;-47
2021/10/10 11:49:52;;;;;;;;;;;;;;;20.20;68.27;101930.41;5061358;28;1628;-46
2021/10/10 11:52:28;;;;;;;;;;;;;;;20.17;68.61;101923.41;5068096;28;1714;-45
2021/10/10 11:58:16;;;;;;;;;;;;;;;20.07;68.41;101914.34;5057917;28;1892;-45
2021/10/10 12:00:45;;;;;;;;;;;;;;;20.03;68.93;101915.53;5066606;28;1497;-45
2021/10/10 12:03:20;;;;;;;;;;;;;;;20.08;68.62;101924.13;5062318;28;1558;-46
2021/10/10 12:05:47;;;;;;;;;;;;;;;20.02;69.37;101911.16;5073096;28;1965;-47
2021/10/10 12:08:30;;;;;;;;;;;;;;;20.00;69.31;101927.38;5073582;28;1747;-45
2021/10/10 12:10:58;;;;;;;;;;;;;;;20.09;67.83;101915.09;5072870;28;1830;-45
2021/10/10 12:13:28;;;;;;;;;;;;;;;20.19;68.87;101910.75;5072780;28;1577;-44
2021/10/10 12:16:02;;;;;;;;;;;;;;;20.34;68.41;101899.81;5068551;28;1758;-42
2021/10/10 12:18:31;;;;;;;;;;;;;;;20.36;68.02;101911.31;5066089;28;1692;-46
2021/10/10 12:21:16;;;;;;;;;;;;;;;20.25;68.27;101894.19;5076386;28;1764;-47
2021/10/10 12:23:46;;;;;;;;;;;;;;;20.16;68.92;101910.13;5075316;28;1598;-48
2021/10/10 12:26:15;;;;;;;;;;;;;;;20.15;68.09;101909.25;5069934;28;1914;-49
2021/10/10 12:28:43;;;;;;;;;;;;;;;20.12;68.67;101909.50;5064573;28;1617;-49
2021/10/10 12:31:18;;;;;;;;;;;;;;;20.17;68.68;101899.25;5070269;28;2048;-43
2021/10/10 12:33:44;;;;;;;;;;;;;;;20.30;67.87;101903.72;5074185;28;1636;-42
2021/10/10 12:36:16;;;;;;;;;;;;;;;20.24;67.63;101908.56;5073300;28;1625;-45
2021/10/10 12:38:45;;;;;;;;;;;;;;;20.20;67.78;101896.34;5075206;28;1805;-46
2021/10/10 12:41:25;;;;;;;;;;;;;;;19.90;68.36;101898.66;5071976;28;1647;-47
2021/10/10 12:43:53;;;;;;;;;;;;;;;19.96;68.18;101896.34;5059636;28;1646;-47
2021/10/10 12:46:21;;;;;;;;;;;;;;;19.96;67.55;101890.13;5073941;28;1978;-46
2021/10/10 12:51:48;;;;;;;;;;;;;;;19.94;67.07;101889.41;5058436;28;2326;-46
2021/10/10 12:54:19;;;;;;;;;;;;;;;20.01;67.82;101874.53;5074501;28;1563;-46
2021/10/10 12:57:09;;;;;;;;;;;;;;;19.95;67.20;101886.56;5070812;28;2846;-46
2021/10/10 12:59:40;;;;;;;;;;;;;;;19.96;66.95;101885.63;5065120;28;2067;-47
2021/10/10 13:02:08;;;;;;;;;;;;;;;19.96;68.29;101884.78;5065756;28;1589;-45
2021/10/10 13:04:35;;;;;;;;;;;;;;;19.95;68.60;101885.72;5071594;28;1540;-46
2021/10/10 13:07:01;;;;;;;;;;;;;;;19.93;69.08;101888.53;5072598;28;1985;-45
2021/10/10 13:09:30;;;;;;;;;;;;;;;20.00;68.84;101880.88;5070546;28;1883;-54
2021/10/10 13:12:06;;;;;;;;;;;;;;;19.96;68.56;101869.50;5071699;28;1517;-54
2021/10/10 13:14:33;;;;;;;;;;;;;;;19.92;68.37;101883.28;5073927;28;1638;-55
2021/10/10 13:17:00;;;;;;;;;;;;;;;19.90;69.00;101866.44;5074367;28;1443;-54